Flight Briefing for CPX796

Departure Arrival
Guarulhos International Airport (SBGR)
Click to view FAA NOTAMS
Miami International Airport (KMIA)
Click to view FAA NOTAMS
Departure Time Arrival Time
N/A N/A
Aircraft Distance
MD-11SF 3554nm
Departure METAR Arrival METAR
SBGR 152100Z 06008KT 6000 BKN008 BKN060 21/21 Q1010 KMIA 152053Z 10006KT 10SM BKN034 OVC250 25/19 A2993 RMK AO2 SLP134 T02500189 56013
Suggested Route
UKBE1C UKBEV ASTOB UM417 OBGAT UZ21 VUMPI UL795 URSUS FLIPR6


View recent IFR Routes data
Notes



Charts and Procedures

Charts for SBGR
No chart available
Charts for KMIA
No chart available

Ventusky Weather